createdAt,value
2022-10-20T00:01:02.153Z,70.33
2022-10-20T00:02:14.445Z,70.50
2022-10-20T00:03:17.300Z,70.41
2022-10-20T00:04:20.151Z,70.39
2022-10-20T00:05:22.997Z,70.42
2022-10-20T00:06:28.163Z,70.58
2022-10-20T00:07:31.101Z,70.45
2022-10-20T00:08:34.283Z,70.47
2022-10-20T00:09:37.097Z,70.42
2022-10-20T00:10:39.887Z,70.55
2022-10-20T00:11:43.087Z,70.54
2022-10-20T00:12:45.951Z,70.59
2022-10-20T00:13:50.065Z,70.40
2022-10-20T00:14:52.900Z,70.55
2022-10-20T00:15:56.249Z,70.59
2022-10-20T00:17:01.450Z,70.40
2022-10-20T00:18:04.277Z,70.77
2022-10-20T00:19:07.658Z,70.58
2022-10-20T00:20:10.955Z,70.54
2022-10-20T00:21:15.556Z,70.22
2022-10-20T00:22:18.487Z,70.24
2022-10-20T00:23:21.985Z,70.84
2022-10-20T00:24:25.024Z,70.52
2022-10-20T00:25:27.803Z,70.75
2022-10-20T00:26:31.134Z,70.54
2022-10-20T00:27:34.437Z,70.75
2022-10-20T00:28:37.232Z,70.83
2022-10-20T00:29:40.241Z,70.68
2022-10-20T00:30:43.086Z,70.90
2022-10-20T00:31:46.012Z,70.96
2022-10-20T00:32:48.911Z,70.85
2022-10-20T00:33:51.810Z,70.66
2022-10-20T00:34:54.629Z,71.10
2022-10-20T00:36:01.305Z,71.24
2022-10-20T00:37:04.116Z,70.91
2022-10-20T00:38:07.164Z,70.73
2022-10-20T00:39:10.118Z,71.07
2022-10-20T00:40:13.013Z,71.13
2022-10-20T00:41:16.897Z,71.13
2022-10-20T00:42:19.989Z,70.83
2022-10-20T00:43:23.284Z,70.90
2022-10-20T00:44:47.145Z,71.02
2022-10-20T00:45:54.815Z,71.03
2022-10-20T00:46:57.924Z,71.01
2022-10-20T00:48:04.858Z,71.08
2022-10-20T00:49:25.190Z,71.08
2022-10-20T00:50:31.628Z,71.47
2022-10-20T00:51:34.616Z,71.31
2022-10-20T00:52:38.159Z,71.43
2022-10-20T00:53:41.178Z,70.94
2022-10-20T00:54:44.469Z,71.27
2022-10-20T00:55:48.943Z,71.61
2022-10-20T00:56:52.959Z,71.37
2022-10-20T00:57:57.059Z,71.15
2022-10-20T00:59:01.370Z,71.49
2022-10-20T01:00:05.980Z,71.19
2022-10-20T01:01:09.378Z,71.41
2022-10-20T01:02:12.647Z,71.53
2022-10-20T01:03:17.674Z,71.25
2022-10-20T01:04:20.579Z,71.27
2022-10-20T01:05:24.020Z,71.30
2022-10-20T01:06:27.127Z,71.32
2022-10-20T01:07:30.031Z,71.43
2022-10-20T01:08:32.871Z,71.55
2022-10-20T01:09:36.148Z,71.24
2022-10-20T01:11:05.192Z,71.71
2022-10-20T01:12:10.937Z,71.53
2022-10-20T01:13:37.046Z,71.28
2022-10-20T01:14:46.010Z,71.30
2022-10-20T01:16:12.652Z,71.53
2022-10-20T01:17:48.130Z,71.70
2022-10-20T01:18:53.556Z,71.58
2022-10-20T01:20:20.910Z,71.49
2022-10-20T01:21:36.027Z,71.52
2022-10-20T01:23:11.385Z,71.71
2022-10-20T01:24:46.732Z,71.38
2022-10-20T01:26:01.817Z,71.45
2022-10-20T01:27:10.441Z,71.51
2022-10-20T01:28:33.623Z,71.66
2022-10-20T01:29:40.192Z,71.57
2022-10-20T01:30:46.785Z,71.80
2022-10-20T01:31:49.812Z,71.74
2022-10-20T01:33:11.695Z,71.49
2022-10-20T01:34:25.840Z,71.66
2022-10-20T01:35:31.521Z,71.60
2022-10-20T01:36:37.372Z,71.81
2022-10-20T01:37:49.263Z,71.88
2022-10-20T01:39:01.397Z,71.82
2022-10-20T01:40:33.643Z,71.66
2022-10-20T01:41:43.813Z,71.74
2022-10-20T01:42:48.260Z,71.48
2022-10-20T01:43:52.348Z,71.74
2022-10-20T01:44:58.298Z,71.75
2022-10-20T01:46:01.905Z,71.43
2022-10-20T01:47:06.044Z,71.68
2022-10-20T01:48:10.400Z,71.95
2022-10-20T01:49:14.562Z,72.01
2022-10-20T01:50:18.823Z,71.92
2022-10-20T01:51:21.705Z,71.75
2022-10-20T01:52:25.104Z,71.69
2022-10-20T01:53:28.313Z,71.75
2022-10-20T01:54:31.167Z,71.54
2022-10-20T01:55:34.542Z,71.35
2022-10-20T01:56:42.176Z,71.68
2022-10-20T01:57:49.759Z,71.42
2022-10-20T01:58:55.705Z,71.28
2022-10-20T02:00:30.810Z,71.26
2022-10-20T02:01:52.133Z,71.47
2022-10-20T02:02:55.221Z,71.29
2022-10-20T02:03:59.527Z,71.36
2022-10-20T02:05:08.137Z,71.58
2022-10-20T02:06:29.804Z,71.31
2022-10-20T02:07:33.607Z,71.46
2022-10-20T02:08:39.780Z,71.33
2022-10-20T02:09:48.746Z,71.64
2022-10-20T02:10:55.721Z,71.30
2022-10-20T02:12:04.232Z,71.36
2022-10-20T02:13:09.031Z,71.07
2022-10-20T02:14:14.231Z,71.27
2022-10-20T02:15:19.366Z,71.14
2022-10-20T02:16:32.523Z,70.91
2022-10-20T02:17:37.126Z,71.14
2022-10-20T02:18:42.633Z,71.16
2022-10-20T02:19:45.973Z,71.22
2022-10-20T02:20:50.522Z,71.01
2022-10-20T02:21:54.572Z,70.96
2022-10-20T02:22:58.636Z,71.46
2022-10-20T02:24:04.722Z,71.23
2022-10-20T02:25:10.930Z,71.42
2022-10-20T02:26:15.369Z,71.34
2022-10-20T02:27:21.180Z,71.23
2022-10-20T02:28:25.663Z,70.96
2022-10-20T02:29:30.880Z,71.18
2022-10-20T02:32:00.139Z,71.04
2022-10-20T02:33:03.862Z,70.95
2022-10-20T02:34:08.159Z,71.39
2022-10-20T02:35:13.759Z,71.09
2022-10-20T02:36:18.178Z,71.23
2022-10-20T02:37:21.021Z,71.05
2022-10-20T02:38:24.028Z,70.90
2022-10-20T02:39:27.054Z,71.05
2022-10-20T02:40:30.041Z,71.05
2022-10-20T02:41:33.067Z,71.14
2022-10-20T02:42:35.982Z,71.28
2022-10-20T02:43:38.981Z,71.16
2022-10-20T02:44:41.837Z,71.10
2022-10-20T02:45:44.804Z,70.80
2022-10-20T02:46:47.637Z,71.06
2022-10-20T02:47:50.670Z,70.89
2022-10-20T02:48:54.021Z,70.71
2022-10-20T02:49:56.879Z,70.93
2022-10-20T02:50:59.833Z,70.82
2022-10-20T02:52:02.766Z,70.60
2022-10-20T02:53:06.073Z,71.19
2022-10-20T02:54:09.004Z,70.59
2022-10-20T02:55:12.054Z,70.90
2022-10-20T02:56:14.930Z,70.94
2022-10-20T02:57:17.871Z,70.81
2022-10-20T02:58:20.833Z,70.71
2022-10-20T02:59:23.817Z,70.66
2022-10-20T03:00:30.929Z,70.87
2022-10-20T03:01:33.885Z,70.94
2022-10-20T03:02:36.895Z,70.49
2022-10-20T03:03:40.365Z,70.86
2022-10-20T03:04:46.614Z,70.77
2022-10-20T03:05:50.047Z,70.55
2022-10-20T03:06:52.992Z,70.77
2022-10-20T03:07:56.057Z,70.85
2022-10-20T03:08:59.156Z,70.82
2022-10-20T03:10:02.239Z,70.76
2022-10-20T03:11:05.303Z,70.60
2022-10-20T03:12:08.210Z,70.71
2022-10-20T03:13:11.265Z,70.87
2022-10-20T03:14:14.494Z,70.78
2022-10-20T03:15:17.602Z,70.93
2022-10-20T03:16:20.426Z,70.90
2022-10-20T03:17:23.347Z,70.79
2022-10-20T03:18:26.288Z,70.94
2022-10-20T03:19:29.152Z,70.93
2022-10-20T03:20:33.480Z,70.94
2022-10-20T03:21:36.404Z,70.73
2022-10-20T03:22:39.378Z,70.81
2022-10-20T03:23:42.226Z,70.88
2022-10-20T03:24:45.171Z,70.86
2022-10-20T03:25:48.461Z,70.90
2022-10-20T03:26:51.436Z,70.80
2022-10-20T03:27:54.415Z,70.92
2022-10-20T03:28:57.184Z,70.89
2022-10-20T03:30:00.243Z,70.91
2022-10-20T03:31:03.391Z,70.87
2022-10-20T03:32:06.275Z,70.89
2022-10-20T03:33:09.158Z,70.98
2022-10-20T03:34:12.792Z,70.87
2022-10-20T03:35:15.805Z,70.98
2022-10-20T03:36:19.065Z,70.83
2022-10-20T03:37:21.919Z,70.92
2022-10-20T03:38:24.817Z,70.79
2022-10-20T03:39:27.754Z,70.93
2022-10-20T03:40:30.784Z,70.92
2022-10-20T03:41:33.986Z,70.96
2022-10-20T03:42:37.575Z,70.97
2022-10-20T03:43:41.278Z,70.76
2022-10-20T03:44:47.027Z,70.83
2022-10-20T03:45:50.146Z,70.81
2022-10-20T03:46:53.074Z,70.89
2022-10-20T03:47:55.887Z,70.93
2022-10-20T03:48:58.685Z,71.02
2022-10-20T03:50:01.624Z,70.89
2022-10-20T03:51:05.511Z,70.88
2022-10-20T03:52:08.617Z,70.65
2022-10-20T03:53:12.888Z,70.91
2022-10-20T03:54:15.755Z,70.78
2022-10-20T03:55:19.048Z,71.09
2022-10-20T03:56:22.128Z,71.02
2022-10-20T03:57:25.080Z,71.16
2022-10-20T03:58:27.901Z,71.09
2022-10-20T03:59:30.715Z,71.02
2022-10-20T04:00:33.568Z,71.17
2022-10-20T04:01:36.642Z,70.97
2022-10-20T04:02:44.075Z,70.69
2022-10-20T04:03:47.402Z,70.93
2022-10-20T04:04:50.284Z,71.05
2022-10-20T04:05:53.255Z,70.81
2022-10-20T04:06:56.117Z,70.69
2022-10-20T04:07:58.996Z,70.80
2022-10-20T04:09:01.970Z,70.82
2022-10-20T04:10:05.243Z,71.01
2022-10-20T04:11:08.220Z,71.01
2022-10-20T04:12:11.091Z,70.93
2022-10-20T04:13:14.141Z,71.18
2022-10-20T04:14:16.965Z,71.33
2022-10-20T04:15:19.827Z,71.35
2022-10-20T04:16:24.335Z,71.21
2022-10-20T04:17:27.294Z,71.24
2022-10-20T04:18:30.713Z,71.32
2022-10-20T04:19:33.803Z,71.09
2022-10-20T04:20:39.292Z,71.13
2022-10-20T04:21:44.985Z,71.13
2022-10-20T04:22:47.817Z,71.04
2022-10-20T04:23:50.954Z,70.99
2022-10-20T04:24:53.768Z,71.03
2022-10-20T04:25:56.710Z,71.19
2022-10-20T04:26:59.648Z,71.32
2022-10-20T04:28:02.509Z,71.17
2022-10-20T04:29:05.570Z,71.17
2022-10-20T04:30:08.828Z,70.88
2022-10-20T04:31:11.671Z,71.00
2022-10-20T04:32:14.515Z,70.87
2022-10-20T04:33:17.646Z,71.09
2022-10-20T04:34:20.785Z,71.14
2022-10-20T04:35:23.533Z,71.20
2022-10-20T04:36:26.368Z,71.14
2022-10-20T04:37:29.300Z,70.96
2022-10-20T04:38:32.585Z,70.97
2022-10-20T04:39:35.470Z,71.09
2022-10-20T04:40:38.365Z,70.85
2022-10-20T04:41:41.519Z,70.84
2022-10-20T04:42:44.436Z,70.79
2022-10-20T04:43:52.337Z,70.97
2022-10-20T04:44:55.413Z,70.77
2022-10-20T04:46:05.264Z,71.03
2022-10-20T04:47:11.307Z,70.92
2022-10-20T04:48:14.285Z,70.98
2022-10-20T04:49:17.305Z,71.10
2022-10-20T04:50:20.288Z,70.76
2022-10-20T04:51:33.500Z,70.72
2022-10-20T04:52:36.557Z,70.90
2022-10-20T04:53:39.814Z,70.77
2022-10-20T04:54:42.681Z,70.80
2022-10-20T04:55:53.542Z,70.75
2022-10-20T04:56:56.501Z,70.95
2022-10-20T04:57:59.349Z,70.93
2022-10-20T04:59:03.144Z,70.89
2022-10-20T05:00:06.411Z,70.90
2022-10-20T05:01:10.399Z,70.85
2022-10-20T05:02:13.360Z,70.77
2022-10-20T05:03:16.446Z,70.83
2022-10-20T05:04:21.914Z,70.66
2022-10-20T05:05:24.882Z,70.95
2022-10-20T05:06:29.223Z,70.70
2022-10-20T05:07:32.075Z,70.98
2022-10-20T05:08:35.373Z,71.05
2022-10-20T05:09:38.627Z,71.32
2022-10-20T05:10:41.623Z,70.98
2022-10-20T05:11:44.588Z,71.11
2022-10-20T05:12:47.666Z,71.30
2022-10-20T05:13:50.950Z,71.00
2022-10-20T05:14:54.128Z,71.02
2022-10-20T05:15:56.922Z,70.91
2022-10-20T05:16:59.932Z,71.03
2022-10-20T05:18:03.121Z,71.02
2022-10-20T05:19:05.996Z,71.13
2022-10-20T05:20:09.069Z,71.10
2022-10-20T05:21:16.320Z,71.18
2022-10-20T05:22:19.305Z,71.01
2022-10-20T05:23:22.203Z,71.12
2022-10-20T05:24:29.178Z,71.20
2022-10-20T05:25:36.644Z,71.28
2022-10-20T05:26:40.319Z,71.18
2022-10-20T05:27:43.331Z,71.10
2022-10-20T05:28:47.171Z,71.25
2022-10-20T05:29:50.168Z,71.22
2022-10-20T05:30:54.650Z,71.39
2022-10-20T05:31:59.538Z,71.40
2022-10-20T05:33:02.756Z,71.35
2022-10-20T05:34:05.837Z,71.51
2022-10-20T05:35:08.941Z,71.39
2022-10-20T05:36:13.846Z,71.56
2022-10-20T05:37:18.000Z,71.49
2022-10-20T05:38:21.034Z,71.56
2022-10-20T05:39:23.886Z,71.58
2022-10-20T05:40:26.722Z,71.58
2022-10-20T05:41:33.369Z,71.50
2022-10-20T05:42:39.354Z,71.55
2022-10-20T05:43:42.567Z,71.65
2022-10-20T05:44:45.428Z,71.66
2022-10-20T05:45:53.490Z,71.68
2022-10-20T05:46:56.566Z,71.79
2022-10-20T05:47:59.516Z,71.77
2022-10-20T05:49:03.283Z,71.72
2022-10-20T05:50:06.385Z,71.79
2022-10-20T05:51:14.908Z,71.77
2022-10-20T05:52:18.968Z,71.78
2022-10-20T05:53:21.897Z,71.82
2022-10-20T05:54:25.265Z,71.89
2022-10-20T05:55:28.121Z,71.98
2022-10-20T05:56:31.201Z,71.89
2022-10-20T05:57:34.049Z,71.89
2022-10-20T05:58:37.011Z,72.00
2022-10-20T05:59:40.006Z,71.97
2022-10-20T06:00:52.060Z,71.93
2022-10-20T06:01:55.355Z,71.97
2022-10-20T06:02:58.307Z,72.12
2022-10-20T06:04:01.158Z,72.08
2022-10-20T06:05:04.289Z,72.11
2022-10-20T06:06:07.192Z,72.14
2022-10-20T06:07:10.200Z,72.15
2022-10-20T06:08:13.146Z,72.30
2022-10-20T06:09:16.176Z,72.26
2022-10-20T06:10:19.303Z,72.32
2022-10-20T06:11:22.648Z,72.38
2022-10-20T06:12:25.482Z,72.39
2022-10-20T06:13:28.425Z,72.37
2022-10-20T06:14:31.332Z,72.31
2022-10-20T06:15:34.362Z,72.51
2022-10-20T06:16:37.544Z,72.55
2022-10-20T06:17:40.441Z,72.42
2022-10-20T06:18:43.968Z,72.39
2022-10-20T06:19:46.925Z,72.63
2022-10-20T06:20:58.281Z,72.38
2022-10-20T06:22:04.066Z,72.74
2022-10-20T06:23:09.922Z,72.75
2022-10-20T06:24:12.822Z,72.55
2022-10-20T06:25:15.660Z,72.58
2022-10-20T06:26:22.879Z,72.59
2022-10-20T06:27:25.859Z,72.76
2022-10-20T06:28:29.666Z,72.79
2022-10-20T06:29:32.477Z,72.64
2022-10-20T06:30:35.342Z,72.82
2022-10-20T06:31:39.464Z,72.87
2022-10-20T06:32:42.390Z,72.88
2022-10-20T06:33:45.248Z,73.00
2022-10-20T06:34:48.090Z,73.01
2022-10-20T06:35:50.921Z,72.93
2022-10-20T06:36:54.071Z,72.97
2022-10-20T06:37:56.958Z,73.03
2022-10-20T06:39:00.036Z,73.05
2022-10-20T06:40:03.492Z,72.99
2022-10-20T06:41:08.328Z,73.16
2022-10-20T06:42:12.246Z,73.27
2022-10-20T06:43:21.176Z,73.18
2022-10-20T06:44:24.226Z,73.09
2022-10-20T06:45:27.140Z,73.16
2022-10-20T06:46:31.461Z,73.24
2022-10-20T06:47:34.818Z,73.11
2022-10-20T06:48:38.056Z,73.12
2022-10-20T06:49:40.935Z,73.09
2022-10-20T06:50:43.791Z,73.18
2022-10-20T06:51:46.975Z,72.93
2022-10-20T06:52:49.962Z,72.98
2022-10-20T06:53:53.067Z,72.93
2022-10-20T06:54:55.956Z,72.77
2022-10-20T06:56:04.352Z,72.90
2022-10-20T06:57:07.243Z,72.85
2022-10-20T06:58:10.216Z,72.73
2022-10-20T06:59:13.131Z,72.70
2022-10-20T07:00:16.121Z,72.28
2022-10-20T07:01:20.349Z,72.13
2022-10-20T07:02:23.165Z,71.91
2022-10-20T07:03:26.599Z,72.28
2022-10-20T07:04:29.417Z,71.99
2022-10-20T07:05:33.710Z,72.32
2022-10-20T07:06:38.393Z,71.58
2022-10-20T07:07:41.639Z,71.61
2022-10-20T07:08:44.717Z,71.63
2022-10-20T07:09:47.592Z,71.59
2022-10-20T07:11:02.791Z,71.43
2022-10-20T07:12:05.665Z,71.28
2022-10-20T07:13:08.564Z,70.73
2022-10-20T07:14:12.925Z,70.77
2022-10-20T07:15:15.815Z,70.97
2022-10-20T07:16:19.953Z,70.94
2022-10-20T07:17:22.800Z,71.09
2022-10-20T07:18:26.864Z,71.08
2022-10-20T07:19:30.143Z,70.57
2022-10-20T07:20:33.650Z,70.57
2022-10-20T07:21:39.177Z,70.39
2022-10-20T07:22:43.267Z,69.85
2022-10-20T07:23:46.730Z,69.72
2022-10-20T07:24:49.910Z,69.56
2022-10-20T07:25:53.125Z,69.41
2022-10-20T07:26:56.190Z,69.66
2022-10-20T07:27:59.244Z,69.22
2022-10-20T07:29:03.885Z,69.10
2022-10-20T07:30:07.140Z,68.76
2022-10-20T07:31:11.755Z,69.23
2022-10-20T07:32:14.656Z,68.78
2022-10-20T07:33:17.481Z,68.98
2022-10-20T07:34:26.279Z,68.81
2022-10-20T07:35:31.114Z,68.60
2022-10-20T07:36:35.943Z,68.88
2022-10-20T07:37:39.448Z,68.34
2022-10-20T07:38:42.911Z,68.50
2022-10-20T07:39:46.274Z,68.46
2022-10-20T07:40:49.300Z,68.43
2022-10-20T07:41:52.200Z,68.35
2022-10-20T07:42:55.029Z,68.54
2022-10-20T07:43:58.152Z,68.33
2022-10-20T07:45:01.091Z,68.41
2022-10-20T07:46:04.785Z,68.59
2022-10-20T07:47:07.725Z,68.33
2022-10-20T07:48:10.595Z,67.96
2022-10-20T07:50:40.753Z,68.54
2022-10-20T07:51:43.866Z,68.14
2022-10-20T07:52:50.414Z,68.62
2022-10-20T07:53:58.159Z,68.43
2022-10-20T07:55:17.618Z,68.51
2022-10-20T07:56:28.361Z,68.48
2022-10-20T07:57:31.740Z,68.26
2022-10-20T07:58:34.557Z,68.12
2022-10-20T07:59:37.892Z,68.61
2022-10-20T08:01:48.697Z,68.68
2022-10-20T08:02:51.618Z,68.49
2022-10-20T08:03:54.448Z,68.53
2022-10-20T08:04:57.286Z,68.65
2022-10-20T08:06:00.108Z,68.52
2022-10-20T08:07:03.191Z,68.65
2022-10-20T08:08:06.390Z,68.35
2022-10-20T08:09:09.270Z,68.56
2022-10-20T08:10:12.368Z,68.37
2022-10-20T08:11:15.263Z,68.15
2022-10-20T08:12:18.135Z,68.28
2022-10-20T08:13:21.276Z,68.43
2022-10-20T08:14:27.138Z,68.48
2022-10-20T08:15:32.544Z,67.79
2022-10-20T08:16:35.833Z,67.66
2022-10-20T08:17:38.733Z,67.83
2022-10-20T08:20:03.349Z,67.82
2022-10-20T08:21:10.577Z,68.16
2022-10-20T08:22:13.596Z,67.65
2022-10-20T08:23:16.586Z,67.49
2022-10-20T08:24:19.961Z,67.32
2022-10-20T08:25:22.904Z,67.70
2022-10-20T08:26:26.365Z,67.47
2022-10-20T08:27:29.309Z,67.38
2022-10-20T08:28:32.376Z,67.58
2022-10-20T08:29:36.053Z,67.25
2022-10-20T08:30:39.048Z,67.33
2022-10-20T08:31:43.645Z,66.46
2022-10-20T08:32:50.285Z,66.87
2022-10-20T08:33:53.417Z,66.61
2022-10-20T08:34:56.850Z,67.01
2022-10-20T08:36:06.951Z,66.62
2022-10-20T08:37:09.897Z,66.34
2022-10-20T08:38:12.987Z,66.47
2022-10-20T08:39:16.180Z,66.61
2022-10-20T08:40:20.464Z,66.38
2022-10-20T08:41:34.493Z,66.76
2022-10-20T08:42:40.321Z,66.77
2022-10-20T08:43:43.410Z,66.56
2022-10-20T08:44:47.452Z,66.41
2022-10-20T08:45:50.520Z,66.48
2022-10-20T08:46:53.663Z,66.10
2022-10-20T08:47:57.483Z,65.65
2022-10-20T08:49:01.066Z,65.67
2022-10-20T08:50:06.335Z,65.52
2022-10-20T08:51:18.915Z,65.53
2022-10-20T08:52:23.101Z,65.09
2022-10-20T08:53:27.467Z,65.23
2022-10-20T08:54:32.494Z,65.30
2022-10-20T08:55:35.489Z,65.14
2022-10-20T08:56:38.513Z,64.77
2022-10-20T08:57:41.571Z,65.08
2022-10-20T08:58:45.193Z,64.58
2022-10-20T08:59:50.968Z,64.01
2022-10-20T09:00:58.003Z,64.09
2022-10-20T09:02:02.754Z,64.08
2022-10-20T09:03:15.777Z,64.26
2022-10-20T09:04:20.204Z,64.48
2022-10-20T09:05:25.846Z,64.45
2022-10-20T09:06:29.010Z,64.23
2022-10-20T09:07:34.467Z,63.73
2022-10-20T09:08:39.473Z,63.90
2022-10-20T09:09:42.430Z,64.13
2022-10-20T09:10:47.575Z,63.66
2022-10-20T09:11:51.265Z,63.65
2022-10-20T09:12:54.806Z,63.53
2022-10-20T09:13:57.710Z,63.59
2022-10-20T09:15:00.975Z,62.91
2022-10-20T09:16:08.207Z,62.65
2022-10-20T09:17:18.539Z,62.68
2022-10-20T09:18:21.773Z,62.64
2022-10-20T09:19:24.706Z,62.77
2022-10-20T09:20:30.537Z,62.91
2022-10-20T09:21:35.810Z,63.08
2022-10-20T09:22:38.627Z,63.11
2022-10-20T09:23:43.572Z,63.34
2022-10-20T09:24:47.049Z,63.40
2022-10-20T09:25:51.281Z,63.38
2022-10-20T09:27:01.414Z,63.38
2022-10-20T09:28:04.488Z,63.53
2022-10-20T09:29:15.176Z,63.39
2022-10-20T09:30:23.056Z,63.15
2022-10-20T09:31:32.894Z,62.76
2022-10-20T09:32:51.403Z,62.87
2022-10-20T09:33:54.382Z,62.67
2022-10-20T09:35:12.408Z,62.60
2022-10-20T09:36:17.635Z,62.48
2022-10-20T09:37:20.532Z,62.44
2022-10-20T09:38:26.547Z,61.97
2022-10-20T09:39:31.813Z,61.82
2022-10-20T09:40:34.856Z,61.35
2022-10-20T09:41:37.686Z,61.96
2022-10-20T09:42:44.044Z,61.63
2022-10-20T09:43:52.156Z,61.47
2022-10-20T09:45:04.346Z,61.43
2022-10-20T09:46:09.424Z,61.51
2022-10-20T09:47:12.545Z,61.86
2022-10-20T09:48:22.235Z,61.36
2022-10-20T09:49:27.910Z,61.68
2022-10-20T09:50:38.823Z,60.96
2022-10-20T09:51:47.413Z,60.86
2022-10-20T09:52:50.333Z,60.68
2022-10-20T09:54:00.976Z,60.59
2022-10-20T09:55:07.564Z,60.61
2022-10-20T09:56:10.775Z,60.35
2022-10-20T09:57:18.189Z,59.97
2022-10-20T09:58:23.718Z,59.86
2022-10-20T09:59:31.960Z,59.79
2022-10-20T10:00:40.528Z,59.74
2022-10-20T10:02:09.884Z,60.00
2022-10-20T10:03:21.546Z,60.12
2022-10-20T10:04:32.216Z,59.53
2022-10-20T10:05:35.202Z,59.30
2022-10-20T10:06:38.188Z,59.20
2022-10-20T10:07:41.355Z,58.64
2022-10-20T10:08:45.986Z,58.62
2022-10-20T10:09:57.064Z,58.58
2022-10-20T10:11:13.708Z,58.75
2022-10-20T10:12:18.910Z,58.51
2022-10-20T10:13:25.096Z,58.67
2022-10-20T10:14:28.913Z,58.43
2022-10-20T10:15:36.585Z,58.22
2022-10-20T10:16:41.059Z,58.33
2022-10-20T10:17:44.415Z,58.07
2022-10-20T10:19:02.117Z,58.23
2022-10-20T10:20:11.244Z,57.75
2022-10-20T10:21:15.941Z,57.70
2022-10-20T10:22:19.441Z,57.88
2022-10-20T10:23:23.860Z,57.35
2022-10-20T10:24:39.527Z,57.82
2022-10-20T10:25:42.518Z,57.54
2022-10-20T10:26:53.195Z,57.05
2022-10-20T10:28:00.506Z,57.23
2022-10-20T10:29:04.191Z,57.22
2022-10-20T10:30:29.183Z,57.04
2022-10-20T10:31:34.779Z,57.08
2022-10-20T10:32:43.139Z,57.19
2022-10-20T10:33:45.909Z,57.12
2022-10-20T10:34:58.905Z,56.95
2022-10-20T10:36:05.387Z,56.92
2022-10-20T10:37:11.970Z,57.05
2022-10-20T10:38:14.880Z,56.82
2022-10-20T10:39:17.734Z,56.33
2022-10-20T10:40:22.281Z,56.36
2022-10-20T10:41:48.287Z,56.61
2022-10-20T10:43:06.368Z,56.78
2022-10-20T10:44:18.319Z,56.69
2022-10-20T10:45:32.679Z,56.48
2022-10-20T10:46:36.957Z,56.52
2022-10-20T10:47:46.259Z,56.42
2022-10-20T10:49:08.284Z,56.40
2022-10-20T10:50:11.236Z,56.36
2022-10-20T10:51:14.314Z,56.46
2022-10-20T10:52:27.933Z,56.21
2022-10-20T10:53:33.633Z,56.65
2022-10-20T10:54:42.665Z,56.42
2022-10-20T10:55:48.800Z,56.04
2022-10-20T10:56:55.276Z,55.97
2022-10-20T10:58:06.638Z,56.10
2022-10-20T10:59:17.995Z,56.16
2022-10-20T11:00:40.377Z,56.17
2022-10-20T11:02:02.640Z,56.02
2022-10-20T11:03:11.642Z,56.20
2022-10-20T11:04:37.126Z,56.50
2022-10-20T11:05:48.868Z,56.53
2022-10-20T11:07:04.262Z,56.57
2022-10-20T11:08:07.009Z,56.55
2022-10-20T11:09:22.255Z,56.14
2022-10-20T11:10:43.535Z,56.68
2022-10-20T11:12:05.144Z,56.45
2022-10-20T11:13:27.184Z,55.89
2022-10-20T11:14:34.457Z,56.12
2022-10-20T11:15:43.072Z,56.04
2022-10-20T11:17:01.226Z,55.76
2022-10-20T11:18:14.635Z,55.80
2022-10-20T11:19:29.387Z,55.46
2022-10-20T11:20:47.615Z,55.29
2022-10-20T11:21:59.095Z,55.15
2022-10-20T11:23:18.498Z,55.26
2022-10-20T11:24:21.437Z,55.19
2022-10-20T11:25:53.823Z,55.14
2022-10-20T11:27:16.879Z,55.21
2022-10-20T11:28:29.532Z,54.76
2022-10-20T11:29:37.686Z,54.92
2022-10-20T11:30:40.716Z,55.11
2022-10-20T11:31:50.671Z,54.97
2022-10-20T11:33:04.648Z,54.87
2022-10-20T11:34:14.565Z,55.05
2022-10-20T11:35:36.077Z,55.07
2022-10-20T11:36:41.718Z,54.86
2022-10-20T11:37:54.941Z,54.79
2022-10-20T11:38:57.784Z,54.65
2022-10-20T11:40:07.655Z,54.60
2022-10-20T11:41:21.139Z,54.79
2022-10-20T11:42:36.673Z,54.79
2022-10-20T11:43:43.249Z,54.86
2022-10-20T11:44:46.825Z,54.70
2022-10-20T11:45:54.172Z,54.85
2022-10-20T11:47:08.061Z,55.00
2022-10-20T11:48:16.713Z,54.79
2022-10-20T11:49:19.744Z,54.08
2022-10-20T11:50:23.361Z,54.20
2022-10-20T11:51:29.594Z,54.76
2022-10-20T11:52:33.641Z,54.76
2022-10-20T11:53:55.495Z,55.09
2022-10-20T11:54:58.348Z,55.43
2022-10-20T11:56:19.980Z,54.72
2022-10-20T11:57:29.589Z,54.63
2022-10-20T11:58:53.147Z,54.00
2022-10-20T12:00:14.713Z,54.18
2022-10-20T12:01:23.631Z,53.65
2022-10-20T12:02:45.294Z,53.31
2022-10-20T12:04:06.923Z,53.29
2022-10-20T12:05:19.052Z,52.52
2022-10-20T12:06:24.974Z,51.89
2022-10-20T12:07:33.970Z,51.70
2022-10-20T12:08:55.424Z,51.46
2022-10-20T12:10:01.365Z,51.67
2022-10-20T12:11:22.879Z,50.88
2022-10-20T12:12:48.561Z,51.50
2022-10-20T12:13:57.409Z,51.53
2022-10-20T12:15:03.247Z,51.66
2022-10-20T12:16:06.109Z,51.87
2022-10-20T12:17:12.473Z,51.43
2022-10-20T12:18:21.128Z,51.25
2022-10-20T12:19:34.226Z,51.08
2022-10-20T12:20:37.178Z,50.19
2022-10-20T12:21:59.898Z,49.29
2022-10-20T12:23:03.061Z,49.21
2022-10-20T12:24:26.205Z,49.51
2022-10-20T12:25:36.661Z,48.07
2022-10-20T12:26:59.905Z,48.50
2022-10-20T12:28:22.477Z,48.50
2022-10-20T12:29:45.847Z,48.41
2022-10-20T12:30:54.508Z,47.85
2022-10-20T12:32:15.810Z,47.02
2022-10-20T12:33:19.678Z,46.31
2022-10-20T12:34:23.406Z,45.63
2022-10-20T12:35:28.571Z,45.52
2022-10-20T12:36:36.688Z,44.66
2022-10-20T12:37:42.273Z,45.29
2022-10-20T12:38:52.471Z,45.38
2022-10-20T12:39:56.614Z,45.36
2022-10-20T12:41:00.158Z,43.91
2022-10-20T12:42:05.274Z,44.39
2022-10-20T12:43:22.873Z,44.80
2022-10-20T12:44:27.854Z,44.49
2022-10-20T12:45:30.838Z,44.30
2022-10-20T12:46:36.505Z,44.15
2022-10-20T12:47:46.186Z,44.04
2022-10-20T12:48:56.633Z,43.96
2022-10-20T12:50:05.941Z,43.53
2022-10-20T12:51:17.888Z,42.39
2022-10-20T12:52:22.330Z,42.19
2022-10-20T12:53:29.579Z,41.49
2022-10-20T12:54:41.929Z,41.82
2022-10-20T12:55:58.446Z,42.02
2022-10-20T12:57:04.405Z,42.01
2022-10-20T12:58:19.246Z,42.41
2022-10-20T12:59:31.070Z,42.31
2022-10-20T13:00:33.991Z,41.89
2022-10-20T13:01:55.422Z,41.56
2022-10-20T13:02:58.909Z,41.41
2022-10-20T13:04:01.923Z,41.70
2022-10-20T13:05:07.868Z,41.92
2022-10-20T13:06:23.509Z,41.73
2022-10-20T13:07:45.348Z,41.30
2022-10-20T13:09:03.540Z,41.77
2022-10-20T13:10:36.622Z,41.07
2022-10-20T13:11:46.726Z,41.34
2022-10-20T13:12:49.789Z,40.40
2022-10-20T13:14:01.623Z,40.95
2022-10-20T13:15:13.043Z,41.29
2022-10-20T13:16:19.360Z,40.83
2022-10-20T13:17:25.281Z,40.97
2022-10-20T13:18:30.587Z,40.78
2022-10-20T13:19:37.173Z,40.87
2022-10-20T13:20:49.865Z,40.61
2022-10-20T13:21:52.727Z,40.62
2022-10-20T13:22:56.380Z,39.73
2022-10-20T13:24:11.760Z,40.27
2022-10-20T13:25:18.175Z,39.61
2022-10-20T13:26:25.509Z,39.93
2022-10-20T13:27:29.024Z,39.70
2022-10-20T13:28:32.402Z,39.55
2022-10-20T13:29:40.485Z,39.64
2022-10-20T13:30:55.147Z,39.28
2022-10-20T13:32:02.981Z,38.79
2022-10-20T13:34:51.831Z,38.48
2022-10-20T13:35:54.629Z,38.74
2022-10-20T13:37:00.390Z,38.93
2022-10-20T13:38:22.006Z,38.43
2022-10-20T13:39:27.958Z,36.63
2022-10-20T13:40:43.239Z,37.75
2022-10-20T13:41:50.593Z,38.29
2022-10-20T13:43:12.254Z,37.67
2022-10-20T13:44:31.749Z,38.42
2022-10-20T13:45:43.294Z,38.83
2022-10-20T13:46:52.192Z,38.16
2022-10-20T13:48:10.038Z,37.83
2022-10-20T13:49:19.501Z,38.00
2022-10-20T13:50:54.856Z,38.05
2022-10-20T13:52:05.984Z,38.13
2022-10-20T13:53:29.874Z,37.29
2022-10-20T13:54:35.982Z,36.90
2022-10-20T13:55:57.607Z,37.27
2022-10-20T13:57:00.984Z,37.55
2022-10-20T13:58:07.337Z,37.60
2022-10-20T13:59:24.311Z,37.56
2022-10-20T14:00:32.400Z,37.29
2022-10-20T14:01:36.465Z,37.57
2022-10-20T14:02:39.862Z,36.58
2022-10-20T14:03:47.366Z,37.00
2022-10-20T14:05:01.280Z,37.25
2022-10-20T14:06:04.263Z,37.25
2022-10-20T14:07:13.124Z,37.15
2022-10-20T14:08:19.941Z,36.98
2022-10-20T14:09:25.802Z,37.14
2022-10-20T14:10:38.960Z,37.43
2022-10-20T14:11:42.687Z,37.10
2022-10-20T14:12:45.586Z,36.87
2022-10-20T14:13:48.585Z,36.81
2022-10-20T14:14:51.480Z,36.71
2022-10-20T14:15:55.286Z,36.51
2022-10-20T14:17:02.256Z,36.15
2022-10-20T14:18:06.898Z,36.65
2022-10-20T14:19:13.646Z,36.93
2022-10-20T14:20:21.374Z,36.73
2022-10-20T14:21:24.283Z,36.89
2022-10-20T14:22:27.353Z,36.85
2022-10-20T14:23:42.006Z,37.15
2022-10-20T14:24:46.737Z,37.31